AirNav   Everest Fuels
 
 1401 users online  

0CN1 Fiorini Ranch Airport
Delhi, California, USA

GOING TO DELHI?


FAA INFORMATION EFFECTIVE 28 FEBRUARY 2019

Location

FAA Identifier: 0CN1
Lat/Long: 37-27-07.8400N / 120-45-53.1300W
37-27.130667N / 120-45.885500W
37.4521778 / -120.7647583
(estimated)
Elevation: 140 ft. / 43 m (estimated)
From city: 1 mile NNE of DELHI, CA
Time zone: UTC -8 (UTC -7 during Daylight Saving Time)
Zip code: 95315

Airport Operations

Airport use: Private use. Permission required prior to landing
Activation date: 11/2016
Control tower: no
ARTCC: OAKLAND CENTER
FSS: RANCHO MURIETA FLIGHT SERVICE STATION
Attendance: UNATNDD
Wind indicator: yes
Segmented circle: no

Airport Communications

WX AWOS-3 at MER (10 nm SE): 124.475 (209-725-0104)
WX ASOS at MOD (14 nm NW): 127.7 (209-572-0914)
WX ASOS at MCE (16 nm SE): 132.175 (209-381-0926)

Nearby radio navigation aids

VOR radial/distance  VOR name  Freq  Var
MODr122/14.0MODESTO VOR/DME114.6017E
HYPr294/22.3EL NIDO VOR/DME114.2015E
LINr146/39.0LINDEN VOR/DME114.8017E

 
NDB name  Hdg/Dist  Freq  Var  ID
TRACY099/35.420315ETCY - -.-. -.--

Airport Services

Runway Information

Runway 16/34

Dimensions: 2229 x 80 ft. / 679 x 24 m
Surface: asphalt
RUNWAY 16  RUNWAY 34
Latitude: 37-27.314333N37-26.947000N
Longitude: 120-45.885333W120-45.885500W
Elevation: 140.0 ft.128.0 ft.
Traffic pattern: leftleft
Touchdown point: yes, no lightsyes, no lights

Airport Ownership and Management from official FAA records

Ownership: Privately-owned
Owner: FIORINI RANCH
15348 LOMARDY AVE
TURLOCK, CA 95380
Phone 209-495-2792
Manager: RANDI FIORINI
15348 LOMARDY AVE
TURLOCK, CA 95380
Phone 209-495-2792

Airport Operational Statistics

Aircraft based on the field: 2
Single engine airplanes: 2
    

Instrument Procedures

There are no published instrument procedures at 0CN1.

Some nearby airports with instrument procedures:

KMER - Castle Airport (10 nm SE)
KMOD - Modesto City-County Airport-Harry Sham Field (14 nm NW)
KMCE - Merced Regional Airport/Macready Field (16 nm SE)
O27 - Oakdale Airport (18 nm N)
KLSN - Los Banos Municipal Airport (24 nm S)
 
Loc | Ops | Rwys | IFR | FBO | Links
Com | Nav | Svcs | Stats | Notes
Aerial photo
WARNING: Photo may not be current or correct
Aerial photo of 0CN1 (Fiorini Ranch Airport)
Photo taken 11-Mar-2017
looking north.

Do you have a better or more recent aerial photo of Fiorini Ranch Airport that you would like to share? If so, please send us your photo.

 
Airport distance calculator
Flying to Fiorini Ranch Airport? Find the distance to fly.

From to 0CN1

Sunrise and sunset
Times for 18-Mar-2019
 Local
(UTC-7)
 Zulu
(UTC)
Morning civil twilight06:4413:44
Sunrise07:1114:11
Sunset19:1202:12
Evening civil twilight19:3802:38

Current date and time
Zulu (UTC)  18-Mar-2019 20:52:14
Local (UTC-7)  18-Mar-2019 13:52:14
 
METAR
KMER 
10nm SE 
181945Z 00000KT 10SM SKC 23/10 A2999
KMOD 
13nm NW 
181953Z 10006KT 10SM CLR 22/08 A2998 RMK AO2 SLP151 T02170083
KMCE 
16nm SE 
181953Z AUTO VRB03KT 10SM CLR 21/11 A2998 RMK AO2 SLP150 T02110106
TAF
KMER 
10nm SE 
181720Z 1818/1918 VRB03KT P6SM FEW250= TAF COR KNCA 1817/1915 10006KT 9999 SKC QNH3012INS BECMG 1900/1902 02001KT 9999 BKN080 QNH3020INS T19/1821Z T05/1912Z COR 1726
KMOD 
13nm NW 
181738Z 1818/1918 16003KT P6SM SCT250 FM190300 VRB03KT P6SM BKN250
KMCE 
16nm SE 
181720Z 1818/1918 VRB03KT P6SM FEW250
NOTAMs
Click for the latest NOTAMs
NOTAMs are issued by the DoD/FAA and will open in a separate window not controlled by AirNav.

 

 
 

Would you like to see your business listed on this page?

 If your business provides an interesting product or service to pilots, flight crews, aircraft, or users of the Fiorini Ranch Airport, you should consider listing it here.  To start the listing process, click on the button below
 
Add a business
 

Other Pages about Fiorini Ranch Airport

Update a link
 
Copyright © AirNav, LLC. All rights reserved. Privacy Policy  Contact